createdAt,value
2023-01-09T00:00:37.248Z,94280.72
2023-01-09T00:01:44.990Z,94269.56
2023-01-09T00:02:46.668Z,94275.28
2023-01-09T00:03:48.383Z,94271.78
2023-01-09T00:04:50.043Z,94283.13
2023-01-09T00:05:51.751Z,94281.66
2023-01-09T00:06:56.173Z,94283.19
2023-01-09T00:07:58.346Z,94272.09
2023-01-09T00:08:59.968Z,94263.03
2023-01-09T00:10:01.597Z,94272.28
2023-01-09T00:11:03.324Z,94272.75
2023-01-09T00:12:05.183Z,94269.19
2023-01-09T00:13:06.838Z,94264.06
2023-01-09T00:14:10.308Z,94268.53
2023-01-09T00:15:12.680Z,94282.47
2023-01-09T00:16:14.416Z,94286.16
2023-01-09T00:17:15.984Z,94285.38
2023-01-09T00:18:17.524Z,94292.56
2023-01-09T00:19:19.101Z,94289.66
2023-01-09T00:20:20.707Z,94287.16
2023-01-09T00:21:22.816Z,94302.34
2023-01-09T00:22:24.647Z,94294.63
2023-01-09T00:23:26.394Z,94286.53
2023-01-09T00:24:27.961Z,94289.47
2023-01-09T00:25:29.572Z,94291.69
2023-01-09T00:26:31.407Z,94295.84
2023-01-09T00:27:34.815Z,94292.56
2023-01-09T00:28:36.929Z,94289.53
2023-01-09T00:29:38.548Z,94284.78
2023-01-09T00:30:40.128Z,94279.75
2023-01-09T00:31:41.822Z,94281.41
2023-01-09T00:32:43.515Z,94284.78
2023-01-09T00:33:50.798Z,94284.53
2023-01-09T00:34:52.459Z,94279.16
2023-01-09T00:35:54.031Z,94285.97
2023-01-09T00:36:56.472Z,94294.28
2023-01-09T00:37:58.116Z,94282.31
2023-01-09T00:38:59.740Z,94291.09
2023-01-09T00:40:01.385Z,94290.72
2023-01-09T00:41:04.643Z,94293.22
2023-01-09T00:42:08.383Z,94287.22
2023-01-09T00:43:10.038Z,94294.56
2023-01-09T00:44:27.757Z,94285.81
2023-01-09T00:45:29.732Z,94293.75
2023-01-09T00:46:35.783Z,94282.25
2023-01-09T00:47:43.075Z,94292.50
2023-01-09T00:48:45.745Z,94289.47
2023-01-09T00:49:48.011Z,94289.25
2023-01-09T00:50:49.693Z,94291.56
2023-01-09T00:51:51.568Z,94291.97
2023-01-09T00:52:54.584Z,94306.09
2023-01-09T00:53:56.402Z,94302.00
2023-01-09T00:54:59.037Z,94302.66
2023-01-09T00:56:01.466Z,94302.47
2023-01-09T00:57:03.152Z,94291.56
2023-01-09T00:58:04.926Z,94295.72
2023-01-09T00:59:07.412Z,94299.22
2023-01-09T01:00:10.116Z,94290.66
2023-01-09T01:01:12.329Z,94295.28
2023-01-09T01:02:14.287Z,94288.38
2023-01-09T01:03:16.095Z,94288.19
2023-01-09T01:04:36.385Z,94291.38
2023-01-09T01:05:56.325Z,94283.91
2023-01-09T01:07:16.616Z,94283.41
2023-01-09T01:08:19.492Z,94288.19
2023-01-09T01:09:21.095Z,94287.94
2023-01-09T01:10:24.737Z,94280.34
2023-01-09T01:11:26.424Z,94278.75
2023-01-09T01:12:28.011Z,94274.34
2023-01-09T01:13:29.583Z,94273.28
2023-01-09T01:14:31.235Z,94265.09
2023-01-09T01:15:32.916Z,94267.34
2023-01-09T01:16:34.504Z,94269.41
2023-01-09T01:17:37.684Z,94261.78
2023-01-09T01:18:40.054Z,94272.75
2023-01-09T01:19:41.753Z,94270.63
2023-01-09T01:20:44.698Z,94264.31
2023-01-09T01:21:46.249Z,94259.06
2023-01-09T01:22:47.924Z,94263.50
2023-01-09T01:23:49.499Z,94267.88
2023-01-09T01:24:51.156Z,94267.41
2023-01-09T01:25:52.753Z,94261.78
2023-01-09T01:26:54.385Z,94263.50
2023-01-09T01:27:55.989Z,94268.00
2023-01-09T01:28:59.335Z,94258.97
2023-01-09T01:30:01.058Z,94259.00
2023-01-09T01:31:03.184Z,94260.34
2023-01-09T01:32:04.964Z,94257.38
2023-01-09T01:33:06.558Z,94245.94
2023-01-09T01:34:08.210Z,94247.75
2023-01-09T01:35:10.446Z,94248.06
2023-01-09T01:36:12.093Z,94253.34
2023-01-09T01:37:13.737Z,94252.34
2023-01-09T01:38:15.337Z,94244.56
2023-01-09T01:39:17.324Z,94253.38
2023-01-09T01:40:19.124Z,94252.91
2023-01-09T01:41:29.667Z,94243.03
2023-01-09T01:42:31.628Z,94251.31
2023-01-09T01:43:53.219Z,94261.63
2023-01-09T01:44:57.547Z,94259.13
2023-01-09T01:45:59.259Z,94261.22
2023-01-09T01:47:00.925Z,94260.50
2023-01-09T01:48:07.221Z,94265.19
2023-01-09T01:49:14.266Z,94260.13
2023-01-09T01:51:04.297Z,94248.06
2023-01-09T01:52:06.076Z,94265.41
2023-01-09T01:53:17.687Z,94255.50
2023-01-09T01:54:24.073Z,94259.94
2023-01-09T01:55:25.749Z,94258.47
2023-01-09T01:56:57.383Z,94255.31
2023-01-09T01:58:01.862Z,94249.16
2023-01-09T01:59:09.357Z,94234.94
2023-01-09T02:00:14.113Z,94240.63
2023-01-09T02:01:16.227Z,94244.97
2023-01-09T02:02:23.335Z,94235.94
2023-01-09T02:03:27.240Z,94237.94
2023-01-09T02:04:29.609Z,94243.78
2023-01-09T02:05:31.383Z,94234.84
2023-01-09T02:06:34.524Z,94237.72
2023-01-09T02:07:36.092Z,94241.56
2023-01-09T02:08:37.768Z,94236.28
2023-01-09T02:09:40.820Z,94256.03
2023-01-09T02:10:42.628Z,94247.25
2023-01-09T02:11:46.077Z,94249.19
2023-01-09T02:12:47.632Z,94247.25
2023-01-09T02:13:49.482Z,94242.28
2023-01-09T02:15:05.251Z,94249.81
2023-01-09T02:16:19.259Z,94242.63
2023-01-09T02:17:29.832Z,94246.66
2023-01-09T02:18:37.730Z,94243.03
2023-01-09T02:20:05.195Z,94238.41
2023-01-09T02:21:16.014Z,94249.75
2023-01-09T02:22:26.372Z,94248.84
2023-01-09T02:23:36.983Z,94235.75
2023-01-09T02:25:00.157Z,94236.16
2023-01-09T02:26:04.733Z,94233.81
2023-01-09T02:27:18.493Z,94234.50
2023-01-09T02:28:26.151Z,94238.91
2023-01-09T02:29:55.423Z,94233.22
2023-01-09T02:31:06.191Z,94235.31
2023-01-09T02:32:16.260Z,94229.28
2023-01-09T02:33:43.302Z,94228.38
2023-01-09T02:35:21.387Z,94212.69
2023-01-09T02:36:52.844Z,94211.47
2023-01-09T02:38:08.556Z,94221.50
2023-01-09T02:39:21.530Z,94212.13
2023-01-09T02:40:31.091Z,94218.09
2023-01-09T02:41:42.128Z,94219.78
2023-01-09T02:42:44.603Z,94219.91
2023-01-09T02:43:46.207Z,94221.16
2023-01-09T02:44:47.824Z,94214.50
2023-01-09T02:45:49.381Z,94210.44
2023-01-09T02:47:29.671Z,94212.47
2023-01-09T02:48:31.468Z,94211.38
2023-01-09T02:49:35.559Z,94212.69
2023-01-09T02:50:43.614Z,94218.00
2023-01-09T02:52:14.393Z,94218.09
2023-01-09T02:53:37.265Z,94214.06
2023-01-09T02:54:48.052Z,94217.13
2023-01-09T02:55:58.336Z,94222.75
2023-01-09T02:57:14.666Z,94212.03
2023-01-09T02:58:22.359Z,94203.91
2023-01-09T02:59:34.702Z,94202.78
2023-01-09T03:00:41.552Z,94205.81
2023-01-09T03:02:04.900Z,94206.03
2023-01-09T03:03:45.568Z,94205.84
2023-01-09T03:04:56.591Z,94204.16
2023-01-09T03:06:12.981Z,94209.81
2023-01-09T03:07:24.562Z,94214.75
2023-01-09T03:08:35.285Z,94212.63
2023-01-09T03:09:37.640Z,94209.81
2023-01-09T03:10:48.130Z,94207.88
2023-01-09T03:11:57.718Z,94210.69
2023-01-09T03:13:00.800Z,94208.56
2023-01-09T03:14:08.557Z,94204.38
2023-01-09T03:15:13.191Z,94212.50
2023-01-09T03:16:21.104Z,94212.19
2023-01-09T03:17:33.552Z,94216.47
2023-01-09T03:18:36.470Z,94222.47
2023-01-09T03:19:38.578Z,94223.69
2023-01-09T03:20:41.132Z,94219.84
2023-01-09T03:21:42.724Z,94221.91
2023-01-09T03:22:54.563Z,94225.41
2023-01-09T03:23:58.418Z,94230.03
2023-01-09T03:25:00.033Z,94225.19
2023-01-09T03:26:01.611Z,94226.16
2023-01-09T03:27:03.257Z,94223.13
2023-01-09T03:28:08.946Z,94222.78
2023-01-09T03:29:10.675Z,94221.34
2023-01-09T03:30:12.625Z,94217.56
2023-01-09T03:31:14.650Z,94215.09
2023-01-09T03:32:16.250Z,94217.94
2023-01-09T03:33:17.940Z,94219.84
2023-01-09T03:34:19.564Z,94221.31
2023-01-09T03:35:21.242Z,94227.28
2023-01-09T03:36:23.324Z,94229.78
2023-01-09T03:37:24.857Z,94235.06
2023-01-09T03:38:26.433Z,94239.34
2023-01-09T03:39:28.023Z,94234.31
2023-01-09T03:40:29.627Z,94242.31
2023-01-09T03:41:31.257Z,94225.84
2023-01-09T03:42:32.857Z,94231.50
2023-01-09T03:43:35.245Z,94236.78
2023-01-09T03:44:36.865Z,94244.78
2023-01-09T03:45:38.649Z,94253.69
2023-01-09T03:46:40.335Z,94258.22
2023-01-09T03:47:41.940Z,94253.31
2023-01-09T03:48:43.637Z,94260.31
2023-01-09T03:49:45.333Z,94251.13
2023-01-09T03:50:53.919Z,94251.69
2023-01-09T03:51:55.492Z,94256.97
2023-01-09T03:52:57.269Z,94251.91
2023-01-09T03:53:58.853Z,94254.53
2023-01-09T03:55:00.460Z,94253.41
2023-01-09T03:56:02.095Z,94263.34
2023-01-09T03:57:03.680Z,94263.44
2023-01-09T03:58:05.303Z,94267.41
2023-01-09T03:59:07.156Z,94262.69
2023-01-09T04:00:09.699Z,94259.88
2023-01-09T04:01:14.709Z,94274.19
2023-01-09T04:02:17.530Z,94269.00
2023-01-09T04:03:20.376Z,94275.78
2023-01-09T04:04:21.975Z,94277.50
2023-01-09T04:05:23.612Z,94274.56
2023-01-09T04:06:25.249Z,94268.56
2023-01-09T04:07:26.972Z,94269.94
2023-01-09T04:08:28.581Z,94281.00
2023-01-09T04:09:30.194Z,94276.38
2023-01-09T04:10:32.155Z,94282.94
2023-01-09T04:11:33.748Z,94283.38
2023-01-09T04:12:35.355Z,94282.59
2023-01-09T04:13:36.982Z,94287.22
2023-01-09T04:14:38.570Z,94290.28
2023-01-09T04:15:40.299Z,94291.41
2023-01-09T04:16:41.947Z,94290.63
2023-01-09T04:17:43.533Z,94301.13
2023-01-09T04:18:45.160Z,94293.47
2023-01-09T04:19:46.785Z,94300.81
2023-01-09T04:20:48.762Z,94292.78
2023-01-09T04:21:50.366Z,94299.38
2023-01-09T04:22:51.985Z,94298.66
2023-01-09T04:23:53.662Z,94306.59
2023-01-09T04:24:55.357Z,94294.50
2023-01-09T04:25:56.968Z,94305.44
2023-01-09T04:26:59.500Z,94316.44
2023-01-09T04:28:01.179Z,94318.81
2023-01-09T04:29:02.784Z,94322.66
2023-01-09T04:30:05.234Z,94320.81
2023-01-09T04:31:06.808Z,94328.16
2023-01-09T04:32:08.549Z,94326.03
2023-01-09T04:33:10.148Z,94331.56
2023-01-09T04:34:11.735Z,94326.13
2023-01-09T04:35:13.416Z,94324.66
2023-01-09T04:36:14.962Z,94321.50
2023-01-09T04:37:16.547Z,94331.69
2023-01-09T04:38:18.292Z,94330.88
2023-01-09T04:39:19.951Z,94333.28
2023-01-09T04:40:21.560Z,94335.41
2023-01-09T04:41:41.825Z,94345.94
2023-01-09T04:42:43.468Z,94340.28
2023-01-09T04:43:45.092Z,94348.97
2023-01-09T04:44:46.672Z,94351.25
2023-01-09T04:45:48.277Z,94349.66
2023-01-09T04:46:49.985Z,94364.03
2023-01-09T04:47:51.579Z,94357.81
2023-01-09T04:48:53.151Z,94368.78
2023-01-09T04:49:54.794Z,94366.06
2023-01-09T04:50:56.401Z,94364.72
2023-01-09T04:51:58.084Z,94367.19
2023-01-09T04:52:59.761Z,94360.97
2023-01-09T04:54:01.397Z,94372.63
2023-01-09T04:55:03.114Z,94370.25
2023-01-09T04:56:05.074Z,94365.94
2023-01-09T04:57:06.919Z,94378.31
2023-01-09T04:58:08.918Z,94380.88
2023-01-09T04:59:10.572Z,94377.16
2023-01-09T05:00:12.720Z,94389.69
2023-01-09T05:01:14.535Z,94381.69
2023-01-09T05:02:16.276Z,94382.16
2023-01-09T05:03:17.944Z,94384.94
2023-01-09T05:04:19.577Z,94385.66
2023-01-09T05:05:21.205Z,94382.81
2023-01-09T05:06:22.814Z,94396.50
2023-01-09T05:07:24.404Z,94402.47
2023-01-09T05:08:26.040Z,94394.34
2023-01-09T05:09:27.761Z,94394.47
2023-01-09T05:10:29.364Z,94395.69
2023-01-09T05:11:31.576Z,94393.91
2023-01-09T05:12:34.701Z,94395.25
2023-01-09T05:13:36.308Z,94384.63
2023-01-09T05:14:37.945Z,94399.44
2023-01-09T05:15:39.527Z,94395.34
2023-01-09T05:16:41.210Z,94402.25
2023-01-09T05:17:42.853Z,94399.56
2023-01-09T05:18:44.586Z,94394.78
2023-01-09T05:19:46.173Z,94405.31
2023-01-09T05:20:47.803Z,94408.34
2023-01-09T05:21:49.460Z,94415.03
2023-01-09T05:22:51.043Z,94414.44
2023-01-09T05:23:52.752Z,94422.91
2023-01-09T05:24:54.310Z,94420.81
2023-01-09T05:25:55.993Z,94429.28
2023-01-09T05:26:58.472Z,94429.59
2023-01-09T05:28:01.392Z,94421.13
2023-01-09T05:29:03.038Z,94428.47
2023-01-09T05:30:04.993Z,94424.19
2023-01-09T05:31:06.622Z,94398.16
2023-01-09T05:32:08.241Z,94413.66
2023-01-09T05:33:09.870Z,94426.88
2023-01-09T05:34:11.534Z,94433.78
2023-01-09T05:35:13.170Z,94430.50
2023-01-09T05:36:15.241Z,94428.25
2023-01-09T05:37:16.927Z,94422.81
2023-01-09T05:38:18.577Z,94426.78
2023-01-09T05:39:20.471Z,94428.25
2023-01-09T05:40:24.867Z,94436.38
2023-01-09T05:41:30.632Z,94426.78
2023-01-09T05:42:33.187Z,94433.78
2023-01-09T05:43:34.713Z,94432.75
2023-01-09T05:44:36.317Z,94430.72
2023-01-09T05:45:38.105Z,94434.34
2023-01-09T05:46:39.753Z,94431.84
2023-01-09T05:47:41.328Z,94434.88
2023-01-09T05:48:44.490Z,94438.16
2023-01-09T05:49:46.083Z,94450.72
2023-01-09T05:50:47.987Z,94440.50
2023-01-09T05:51:49.661Z,94441.31
2023-01-09T05:52:51.307Z,94441.53
2023-01-09T05:53:52.891Z,94450.78
2023-01-09T05:54:54.456Z,94446.41
2023-01-09T05:55:56.090Z,94450.94
2023-01-09T05:56:57.740Z,94450.00
2023-01-09T05:57:59.415Z,94453.50
2023-01-09T05:59:01.066Z,94460.75
2023-01-09T06:00:03.101Z,94457.81
2023-01-09T06:01:08.539Z,94463.09
2023-01-09T06:02:10.588Z,94457.22
2023-01-09T06:03:12.335Z,94451.34
2023-01-09T06:04:13.989Z,94453.25
2023-01-09T06:05:15.741Z,94464.56
2023-01-09T06:06:17.378Z,94471.13
2023-01-09T06:07:22.043Z,94466.81
2023-01-09T06:08:24.951Z,94467.16
2023-01-09T06:09:26.594Z,94466.03
2023-01-09T06:10:28.235Z,94467.47
2023-01-09T06:11:29.925Z,94470.09
2023-01-09T06:12:31.645Z,94465.63
2023-01-09T06:13:33.298Z,94474.03
2023-01-09T06:14:34.922Z,94478.22
2023-01-09T06:15:36.560Z,94483.97
2023-01-09T06:16:38.340Z,94492.34
2023-01-09T06:17:39.940Z,94494.94
2023-01-09T06:18:41.602Z,94489.41
2023-01-09T06:19:43.261Z,94493.69
2023-01-09T06:20:45.979Z,94496.19
2023-01-09T06:21:47.587Z,94503.22
2023-01-09T06:22:52.012Z,94493.94
2023-01-09T06:23:53.653Z,94503.22
2023-01-09T06:24:55.284Z,94506.25
2023-01-09T06:25:56.957Z,94509.28
2023-01-09T06:26:58.561Z,94506.91
2023-01-09T06:28:00.201Z,94502.94
2023-01-09T06:29:02.137Z,94504.31
2023-01-09T06:30:04.211Z,94514.72
2023-01-09T06:31:06.063Z,94518.53
2023-01-09T06:32:07.808Z,94521.63
2023-01-09T06:33:09.407Z,94520.94
2023-01-09T06:34:11.036Z,94536.72
2023-01-09T06:35:12.721Z,94538.53
2023-01-09T06:36:14.498Z,94536.63
2023-01-09T06:37:16.170Z,94550.75
2023-01-09T06:38:17.849Z,94542.63
2023-01-09T06:39:19.489Z,94553.38
2023-01-09T06:40:21.314Z,94559.59
2023-01-09T06:41:23.025Z,94557.06
2023-01-09T06:42:24.664Z,94562.38
2023-01-09T06:43:26.471Z,94568.56
2023-01-09T06:44:28.056Z,94575.56
2023-01-09T06:45:29.616Z,94571.63
2023-01-09T06:46:31.266Z,94580.41
2023-01-09T06:47:33.786Z,94591.41
2023-01-09T06:48:35.415Z,94588.69
2023-01-09T06:49:37.052Z,94591.91
2023-01-09T06:50:38.641Z,94600.94
2023-01-09T06:51:40.293Z,94593.97
2023-01-09T06:52:41.952Z,94590.34
2023-01-09T06:53:43.527Z,94591.94
2023-01-09T06:54:45.136Z,94588.47
2023-01-09T06:55:46.798Z,94588.16
2023-01-09T06:56:48.365Z,94589.75
2023-01-09T06:57:49.954Z,94587.53
2023-01-09T06:58:51.630Z,94589.94
2023-01-09T06:59:53.402Z,94588.34
2023-01-09T07:00:56.296Z,94598.06
2023-01-09T07:01:58.007Z,94600.31
2023-01-09T07:03:00.362Z,94602.69
2023-01-09T07:04:02.005Z,94602.06
2023-01-09T07:05:07.574Z,94588.06
2023-01-09T07:06:09.194Z,94603.06
2023-01-09T07:07:10.902Z,94589.69
2023-01-09T07:08:12.719Z,94598.31
2023-01-09T07:09:14.464Z,94593.22
2023-01-09T07:10:16.164Z,94599.75
2023-01-09T07:11:17.794Z,94597.38
2023-01-09T07:12:19.466Z,94604.84
2023-01-09T07:13:21.115Z,94598.50
2023-01-09T07:14:22.720Z,94604.56
2023-01-09T07:15:24.303Z,94616.66
2023-01-09T07:16:25.885Z,94618.09
2023-01-09T07:17:27.658Z,94618.72
2023-01-09T07:18:29.272Z,94622.25
2023-01-09T07:19:31.411Z,94626.53
2023-01-09T07:20:33.018Z,94627.66
2023-01-09T07:21:34.721Z,94628.13
2023-01-09T07:22:36.443Z,94642.00
2023-01-09T07:23:38.065Z,94644.88
2023-01-09T07:24:39.792Z,94654.41
2023-01-09T07:25:44.306Z,94652.38
2023-01-09T07:26:46.440Z,94655.22
2023-01-09T07:27:48.243Z,94653.50
2023-01-09T07:28:49.958Z,94639.63
2023-01-09T07:29:53.338Z,94655.88
2023-01-09T07:30:55.083Z,94658.13
2023-01-09T07:31:57.202Z,94653.81
2023-01-09T07:32:58.923Z,94661.94
2023-01-09T07:34:00.557Z,94661.47
2023-01-09T07:35:02.139Z,94671.34
2023-01-09T07:36:03.933Z,94664.00
2023-01-09T07:37:05.469Z,94653.84
2023-01-09T07:38:07.130Z,94666.41
2023-01-09T07:39:09.245Z,94666.91
2023-01-09T07:40:11.227Z,94669.31
2023-01-09T07:41:12.826Z,94660.53
2023-01-09T07:42:14.798Z,94669.44
2023-01-09T07:43:16.494Z,94659.09
2023-01-09T07:44:18.110Z,94678.53
2023-01-09T07:45:20.129Z,94668.03
2023-01-09T07:46:21.885Z,94675.50
2023-01-09T07:47:23.516Z,94666.75
2023-01-09T07:48:25.197Z,94674.53
2023-01-09T07:49:27.043Z,94679.94
2023-01-09T07:50:28.633Z,94680.44
2023-01-09T07:51:30.251Z,94683.16
2023-01-09T07:52:31.847Z,94675.50
2023-01-09T07:53:33.451Z,94677.09
2023-01-09T07:54:35.102Z,94681.69
2023-01-09T07:55:36.762Z,94682.66
2023-01-09T07:56:39.529Z,94688.88
2023-01-09T07:57:41.166Z,94692.84
2023-01-09T07:58:42.755Z,94683.47
2023-01-09T07:59:44.348Z,94688.38
2023-01-09T08:00:45.980Z,94694.59
2023-01-09T08:01:47.790Z,94688.69
2023-01-09T08:02:53.472Z,94695.22
2023-01-09T08:03:55.186Z,94681.69
2023-01-09T08:04:56.941Z,94691.41
2023-01-09T08:05:58.528Z,94692.19
2023-01-09T08:07:00.137Z,94688.69
2023-01-09T08:08:02.019Z,94694.09
2023-01-09T08:09:03.760Z,94697.63
2023-01-09T08:10:05.758Z,94699.53
2023-01-09T08:11:07.300Z,94702.72
2023-01-09T08:12:08.915Z,94703.03
2023-01-09T08:13:10.622Z,94700.81
2023-01-09T08:14:12.254Z,94704.63
2023-01-09T08:15:14.218Z,94697.94
2023-01-09T08:16:16.082Z,94697.78
2023-01-09T08:17:17.616Z,94705.28
2023-01-09T08:18:19.191Z,94695.22
2023-01-09T08:19:20.933Z,94699.88
2023-01-09T08:20:22.625Z,94698.59
2023-01-09T08:21:24.316Z,94695.88
2023-01-09T08:22:25.889Z,94704.78
2023-01-09T08:23:27.502Z,94696.38
2023-01-09T08:24:30.268Z,94690.78
2023-01-09T08:25:32.148Z,94701.13
2023-01-09T08:26:33.737Z,94702.41
2023-01-09T08:27:35.265Z,94708.00
2023-01-09T08:28:36.917Z,94708.00
2023-01-09T08:29:38.522Z,94705.59
2023-01-09T08:30:40.180Z,94712.59
2023-01-09T08:31:41.800Z,94714.03
2023-01-09T08:32:43.771Z,94711.00
2023-01-09T08:33:45.334Z,94722.94
2023-01-09T08:34:46.962Z,94709.91
2023-01-09T08:35:48.912Z,94713.53
2023-01-09T08:36:50.677Z,94709.41
2023-01-09T08:37:52.339Z,94717.34
2023-01-09T08:38:54.030Z,94719.59
2023-01-09T08:39:56.458Z,94722.94
2023-01-09T08:40:58.045Z,94725.03
2023-01-09T08:42:18.233Z,94720.38
2023-01-09T08:43:38.373Z,94721.53
2023-01-09T08:44:58.559Z,94721.03
2023-01-09T08:46:19.474Z,94718.47
2023-01-09T08:47:22.851Z,94711.00
2023-01-09T08:48:24.377Z,94715.63
2023-01-09T08:49:25.995Z,94714.16
2023-01-09T08:50:27.561Z,94714.34
2023-01-09T08:51:29.237Z,94713.06
2023-01-09T08:52:31.100Z,94712.13
2023-01-09T08:53:32.648Z,94707.19
2023-01-09T08:54:36.809Z,94702.41
2023-01-09T08:55:39.071Z,94714.03
2023-01-09T08:56:40.728Z,94718.00
2023-01-09T08:57:50.148Z,94709.41
2023-01-09T08:58:51.756Z,94706.53
2023-01-09T08:59:53.414Z,94709.22
2023-01-09T09:00:55.041Z,94707.81
2023-01-09T09:01:57.283Z,94706.38
2023-01-09T09:03:01.121Z,94704.47
2023-01-09T09:04:05.337Z,94706.69
2023-01-09T09:05:07.305Z,94696.81
2023-01-09T09:06:08.903Z,94705.28
2023-01-09T09:07:10.537Z,94691.25
2023-01-09T09:08:12.616Z,94698.28
2023-01-09T09:09:14.280Z,94704.16
2023-01-09T09:10:18.660Z,94709.09
2023-01-09T09:11:20.262Z,94705.91
2023-01-09T09:12:22.365Z,94709.09
2023-01-09T09:13:23.930Z,94705.72
2023-01-09T09:14:44.316Z,94705.41
2023-01-09T09:15:45.965Z,94704.31
2023-01-09T09:16:47.885Z,94709.09
2023-01-09T09:18:00.815Z,94705.72
2023-01-09T09:19:02.425Z,94708.44
2023-01-09T09:20:04.823Z,94711.16
2023-01-09T09:21:06.386Z,94707.97
2023-01-09T09:22:07.997Z,94715.63
2023-01-09T09:23:09.523Z,94728.19
2023-01-09T09:24:11.211Z,94729.47
2023-01-09T09:25:12.903Z,94727.56
2023-01-09T09:26:14.538Z,94729.94
2023-01-09T09:27:16.154Z,94735.38
2023-01-09T09:28:17.792Z,94738.69
2023-01-09T09:29:19.470Z,94739.34
2023-01-09T09:30:21.236Z,94734.09
2023-01-09T09:31:22.906Z,94737.28
2023-01-09T09:32:24.536Z,94742.69
2023-01-09T09:33:26.222Z,94747.13
2023-01-09T09:34:27.835Z,94747.78
2023-01-09T09:35:31.091Z,94754.63
2023-01-09T09:36:32.890Z,94745.41
2023-01-09T09:37:35.016Z,94759.56
2023-01-09T09:38:36.628Z,94761.63
2023-01-09T09:39:38.341Z,94751.91
2023-01-09T09:41:30.338Z,94757.34
2023-01-09T09:43:12.683Z,94757.19
2023-01-09T09:44:53.363Z,94741.06
2023-01-09T09:46:29.058Z,94743.78
2023-01-09T09:47:43.425Z,94734.22
2023-01-09T09:48:52.025Z,94734.38
2023-01-09T09:50:30.797Z,94729.44
2023-01-09T09:52:21.641Z,94732.81
2023-01-09T09:53:35.367Z,94735.97
2023-01-09T09:54:41.527Z,94732.63
2023-01-09T09:55:45.147Z,94729.13
2023-01-09T09:56:50.653Z,94735.19
2023-01-09T09:57:53.186Z,94732.44
2023-01-09T09:58:56.604Z,94734.19
2023-01-09T09:59:58.313Z,94731.44
2023-01-09T10:01:01.595Z,94739.44
2023-01-09T10:02:09.208Z,94732.72
2023-01-09T10:03:20.529Z,94738.66
2023-01-09T10:04:32.115Z,94732.47
2023-01-09T10:05:37.285Z,94729.09
2023-01-09T10:06:45.078Z,94735.34
2023-01-09T10:07:51.172Z,94730.53
2023-01-09T10:09:03.941Z,94726.59
2023-01-09T10:10:11.201Z,94733.25
2023-01-09T10:11:16.642Z,94727.69
2023-01-09T10:12:34.446Z,94725.13
2023-01-09T10:13:54.455Z,94725.94
2023-01-09T10:14:58.337Z,94722.09
2023-01-09T10:16:08.918Z,94719.69
2023-01-09T10:17:25.855Z,94719.56
2023-01-09T10:18:48.559Z,94721.31
2023-01-09T10:19:56.110Z,94726.72
2023-01-09T10:21:12.980Z,94726.69
2023-01-09T10:22:20.235Z,94724.75
2023-01-09T10:23:37.662Z,94720.59
2023-01-09T10:24:54.234Z,94719.00
2023-01-09T10:26:48.442Z,94719.94
2023-01-09T10:28:04.982Z,94716.25
2023-01-09T10:29:19.557Z,94716.88
2023-01-09T10:30:33.295Z,94712.91
2023-01-09T10:31:40.782Z,94708.72
2023-01-09T10:33:03.201Z,94707.88
2023-01-09T10:34:27.638Z,94710.00
2023-01-09T10:35:48.436Z,94713.03
2023-01-09T10:36:53.086Z,94702.63
2023-01-09T10:37:57.531Z,94702.78
2023-01-09T10:39:04.208Z,94709.81
2023-01-09T10:40:23.341Z,94706.44
2023-01-09T10:41:36.817Z,94705.22
2023-01-09T10:42:45.041Z,94709.31
2023-01-09T10:43:55.607Z,94701.31
2023-01-09T10:45:05.537Z,94702.69
2023-01-09T10:46:26.019Z,94698.22
2023-01-09T10:47:34.421Z,94705.41
2023-01-09T10:48:38.052Z,94713.56
2023-01-09T10:49:39.739Z,94706.41
2023-01-09T10:50:45.832Z,94702.06
2023-01-09T10:51:49.071Z,94704.16
2023-01-09T10:52:53.484Z,94708.91
2023-01-09T10:53:56.090Z,94709.56
2023-01-09T10:55:05.500Z,94702.19
2023-01-09T10:56:21.558Z,94708.41
2023-01-09T10:57:44.348Z,94698.19
2023-01-09T10:58:46.661Z,94692.59
2023-01-09T10:59:48.223Z,94687.00
2023-01-09T11:00:51.018Z,94686.69
2023-01-09T11:01:53.647Z,94684.34
2023-01-09T11:02:55.423Z,94692.81
2023-01-09T11:03:59.199Z,94695.84
2023-01-09T11:05:00.989Z,94695.25
2023-01-09T11:06:03.372Z,94690.25
2023-01-09T11:07:11.536Z,94693.13
2023-01-09T11:08:23.283Z,94689.28
2023-01-09T11:09:24.925Z,94685.31
2023-01-09T11:10:52.148Z,94685.63
2023-01-09T11:11:53.828Z,94677.50
2023-01-09T11:13:14.441Z,94687.50
2023-01-09T11:14:18.201Z,94685.25
2023-01-09T11:15:31.529Z,94683.63
2023-01-09T11:16:33.193Z,94675.38
2023-01-09T11:17:34.717Z,94681.44
2023-01-09T11:18:41.137Z,94683.81
2023-01-09T11:20:01.091Z,94685.31
2023-01-09T11:21:27.592Z,94690.19
2023-01-09T11:22:29.485Z,94683.72
2023-01-09T11:23:33.974Z,94689.41
2023-01-09T11:24:35.616Z,94681.59
2023-01-09T11:25:52.885Z,94685.78
2023-01-09T11:27:12.437Z,94688.22
2023-01-09T11:28:14.013Z,94684.91
2023-01-09T11:29:17.811Z,94683.13
2023-01-09T11:30:26.153Z,94675.50
2023-01-09T11:31:28.984Z,94682.22
2023-01-09T11:32:30.933Z,94682.66
2023-01-09T11:33:37.910Z,94680.09
2023-01-09T11:34:39.586Z,94668.38
2023-01-09T11:36:07.892Z,94676.00
2023-01-09T11:37:11.909Z,94674.00
2023-01-09T11:38:16.851Z,94671.22
2023-01-09T11:39:26.285Z,94680.09
2023-01-09T11:40:28.328Z,94670.50
2023-01-09T11:41:35.274Z,94673.69
2023-01-09T11:42:51.822Z,94677.97
2023-01-09T11:43:55.546Z,94684.19
2023-01-09T11:44:58.841Z,94677.22
2023-01-09T11:46:06.411Z,94675.25
2023-01-09T11:47:25.721Z,94678.16
2023-01-09T11:48:54.813Z,94690.75
2023-01-09T11:50:18.996Z,94688.97
2023-01-09T11:51:25.831Z,94690.88
2023-01-09T11:52:27.454Z,94684.59
2023-01-09T11:53:29.499Z,94690.75
2023-01-09T11:54:32.872Z,94691.28
2023-01-09T11:55:41.742Z,94694.31
2023-01-09T11:56:44.379Z,94693.66
2023-01-09T11:57:45.952Z,94695.38
2023-01-09T11:58:47.710Z,94703.44
2023-01-09T11:59:49.372Z,94701.41
2023-01-09T12:01:21.497Z,94712.06
2023-01-09T12:02:30.547Z,94712.06
2023-01-09T12:04:05.801Z,94719.03
2023-01-09T12:05:27.751Z,94714.72
2023-01-09T12:06:57.392Z,94712.47
2023-01-09T12:08:07.755Z,94709.56
2023-01-09T12:09:29.290Z,94716.53
2023-01-09T12:10:39.598Z,94715.19
2023-01-09T12:11:53.104Z,94714.59
2023-01-09T12:13:21.311Z,94708.81
2023-01-09T12:14:40.941Z,94701.47
2023-01-09T12:15:57.564Z,94705.25
2023-01-09T12:17:38.286Z,94709.09
2023-01-09T12:19:21.853Z,94722.31
2023-01-09T12:20:51.642Z,94708.63
2023-01-09T12:22:17.769Z,94716.22
2023-01-09T12:23:35.303Z,94720.72
2023-01-09T12:25:04.746Z,94715.84
2023-01-09T12:26:37.147Z,94713.28
2023-01-09T12:28:00.378Z,94717.69
2023-01-09T12:29:04.882Z,94711.59
2023-01-09T12:30:21.548Z,94710.72
2023-01-09T12:31:48.216Z,94712.72
2023-01-09T12:32:52.582Z,94711.13
2023-01-09T12:34:06.739Z,94708.88
2023-01-09T12:35:33.221Z,94713.53
2023-01-09T12:36:45.573Z,94715.03
2023-01-09T12:38:05.636Z,94717.28
2023-01-09T12:39:07.185Z,94712.50
2023-01-09T12:40:24.047Z,94718.22
2023-01-09T12:41:37.064Z,94715.63
2023-01-09T12:43:03.180Z,94711.84
2023-01-09T12:44:30.739Z,94717.44
2023-01-09T12:45:58.964Z,94718.25
2023-01-09T12:47:29.821Z,94711.44
2023-01-09T12:48:51.786Z,94717.69
2023-01-09T12:50:12.123Z,94720.47
2023-01-09T12:51:40.869Z,94728.63
2023-01-09T12:52:46.380Z,94712.53
2023-01-09T12:54:14.404Z,94717.09
2023-01-09T12:55:19.978Z,94714.72